Terminal Aerodrome Forecast
Issued by NWS

Home | Current Version | Previous Version | Text Only | Print | Product List | Glossary On
Versions: 1 2 3 4 5 6 7 8 9 10 11 12 13 14
000
FTUS42 KMLB 270500
TAFSFB
TAF
KSFB 270537Z 2706/2806 03005KT P6SM FEW025 BKN060 OVC100
     FM271500 04012G18KT P6SM SCT040 SCT120
     FM272300 06007KT P6SM SCT040=

USA.gov is the U.S. government's official web portal to all federal, state and local government web resources and services.